Terminal Aerodrome Forecast
Issued by NWS Portland, OR

Home | Current Version | Previous Version | Text Only | Print | Product List | Glossary On
Versions: 1 2 3 4 5 6 7 8 9 10 11 12 13 14 15 16 17 18 19 20 21 22 23 24 25 26 27 28 29 30 31 32 33 34 35 36 37 38 39 40 41 42 43 44 45 46 47 48 49 50
592
FTUS46 KPQR 191742
TAFPDX
TAF
KPDX 191742Z 1918/2018 17011KT P6SM -RA SCT010 OVC030
      TEMPO 1918/1922 3SM RA BR BKN010 OVC025
     FM192200 18010KT 5SM -RA BR SCT015 OVC025
     FM200300 20008KT 6SM -RA BR SCT020 OVC060=

USA.gov is the U.S. government's official web portal to all federal, state and local government web resources and services.